sensor_id;sensor_type;location;lat;lon;timestamp;pressure;altitude;pressure_sealevel;temperature;humidity
46778;BME280;32536;47.128;8.746;2022-09-24T00:01:34;91506.88;;;16.68;46.40
46778;BME280;32536;47.128;8.746;2022-09-24T00:04:06;91509.59;;;16.68;46.87
46778;BME280;32536;47.128;8.746;2022-09-24T00:06:37;91503.31;;;16.71;46.82
46778;BME280;32536;47.128;8.746;2022-09-24T00:09:06;91508.88;;;16.77;46.65
46778;BME280;32536;47.128;8.746;2022-09-24T00:11:34;91501.06;;;16.79;46.67
46778;BME280;32536;47.128;8.746;2022-09-24T00:14:00;91494.16;;;16.78;46.45
46778;BME280;32536;47.128;8.746;2022-09-24T00:16:28;91501.06;;;16.79;46.54
46778;BME280;32536;47.128;8.746;2022-09-24T00:18:59;91499.41;;;16.81;46.61
46778;BME280;32536;47.128;8.746;2022-09-24T00:21:29;91493.13;;;16.85;46.67
46778;BME280;32536;47.128;8.746;2022-09-24T00:24:17;91488.78;;;16.87;47.14
46778;BME280;32536;47.128;8.746;2022-09-24T00:27:16;91495.56;;;16.92;46.47
46778;BME280;32536;47.128;8.746;2022-09-24T00:29:43;91490.56;;;16.90;46.27
46778;BME280;32536;47.128;8.746;2022-09-24T00:32:10;91487.72;;;16.85;46.24
46778;BME280;32536;47.128;8.746;2022-09-24T00:34:38;91482.59;;;16.77;46.56
46778;BME280;32536;47.128;8.746;2022-09-24T00:37:04;91479.56;;;16.75;46.70
46778;BME280;32536;47.128;8.746;2022-09-24T00:39:31;91472.34;;;16.72;46.80
46778;BME280;32536;47.128;8.746;2022-09-24T00:41:58;91475.34;;;16.74;46.91
46778;BME280;32536;47.128;8.746;2022-09-24T00:49:57;91460.31;;;16.73;47.11
46778;BME280;32536;47.128;8.746;2022-09-24T00:52:32;91456.41;;;16.74;46.79
46778;BME280;32536;47.128;8.746;2022-09-24T00:55:04;91458.66;;;16.76;46.85
46778;BME280;32536;47.128;8.746;2022-09-24T00:57:33;91458.38;;;16.74;46.96
46778;BME280;32536;47.128;8.746;2022-09-24T01:00:00;91456.56;;;16.71;47.06
46778;BME280;32536;47.128;8.746;2022-09-24T01:02:28;91461.38;;;16.67;46.97
46778;BME280;32536;47.128;8.746;2022-09-24T01:04:56;91454.44;;;16.65;46.76
46778;BME280;32536;47.128;8.746;2022-09-24T01:07:24;91451.28;;;16.67;46.72
46778;BME280;32536;47.128;8.746;2022-09-24T01:09:51;91452.47;;;16.66;46.43
46778;BME280;32536;47.128;8.746;2022-09-24T01:15:09;91449.78;;;16.66;48.07
46778;BME280;32536;47.128;8.746;2022-09-24T01:18:06;91446.66;;;16.68;47.60
46778;BME280;32536;47.128;8.746;2022-09-24T01:20:52;91439.72;;;16.67;47.20
46778;BME280;32536;47.128;8.746;2022-09-24T01:23:49;91450.69;;;16.63;47.37
46778;BME280;32536;47.128;8.746;2022-09-24T01:26:56;91454.72;;;16.58;47.90
46778;BME280;32536;47.128;8.746;2022-09-24T01:32:56;91438.81;;;16.60;47.34
46778;BME280;32536;47.128;8.746;2022-09-24T01:35:27;91438.81;;;16.60;46.79
46778;BME280;32536;47.128;8.746;2022-09-24T01:38:00;91434.44;;;16.54;47.05
46778;BME280;32536;47.128;8.746;2022-09-24T01:40:42;91441.19;;;16.49;47.16
46778;BME280;32536;47.128;8.746;2022-09-24T01:43:11;91438.50;;;16.49;47.44
46778;BME280;32536;47.128;8.746;2022-09-24T01:45:39;91446.75;;;16.55;47.34
46778;BME280;32536;47.128;8.746;2022-09-24T01:48:07;91444.53;;;16.62;47.02
46778;BME280;32536;47.128;8.746;2022-09-24T01:50:48;91446.34;;;16.65;47.79
46778;BME280;32536;47.128;8.746;2022-09-24T01:53:25;91452.47;;;16.66;47.43
46778;BME280;32536;47.128;8.746;2022-09-24T01:56:01;91446.66;;;16.68;47.53
46778;BME280;32536;47.128;8.746;2022-09-24T01:58:50;91453.56;;;16.69;47.65
46778;BME280;32536;47.128;8.746;2022-09-24T02:02:09;91449.78;;;16.66;48.25
46778;BME280;32536;47.128;8.746;2022-09-24T02:04:46;91440.78;;;16.69;47.44
46778;BME280;32536;47.128;8.746;2022-09-24T02:07:35;91434.91;;;16.71;47.87
46778;BME280;32536;47.128;8.746;2022-09-24T02:10:13;91427.72;;;16.77;48.02
46778;BME280;32536;47.128;8.746;2022-09-24T02:12:42;91422.94;;;16.81;47.18
46778;BME280;32536;47.128;8.746;2022-09-24T02:15:19;91413.91;;;16.84;47.72
46778;BME280;32536;47.128;8.746;2022-09-24T02:17:57;91414.22;;;16.86;47.37
46778;BME280;32536;47.128;8.746;2022-09-24T02:20:29;91398.59;;;16.81;47.29
46778;BME280;32536;47.128;8.746;2022-09-24T02:22:56;91393.59;;;16.79;47.25
46778;BME280;32536;47.128;8.746;2022-09-24T02:25:29;91390.63;;;16.77;47.70
46778;BME280;32536;47.128;8.746;2022-09-24T02:28:28;91386.09;;;16.84;47.43
46778;BME280;32536;47.128;8.746;2022-09-24T02:31:13;91381.91;;;16.83;48.03
46778;BME280;32536;47.128;8.746;2022-09-24T02:33:48;91373.63;;;16.86;47.84
46778;BME280;32536;47.128;8.746;2022-09-24T02:39:24;91360.09;;;16.86;47.57
46778;BME280;32536;47.128;8.746;2022-09-24T02:41:51;91369.41;;;16.85;47.27
46778;BME280;32536;47.128;8.746;2022-09-24T02:44:19;91369.72;;;16.87;47.41
46778;BME280;32536;47.128;8.746;2022-09-24T02:46:47;91349.59;;;16.88;47.48
46778;BME280;32536;47.128;8.746;2022-09-24T02:49:15;91364.78;;;16.86;47.50
46778;BME280;32536;47.128;8.746;2022-09-24T02:51:43;91368.69;;;16.85;47.67
46778;BME280;32536;47.128;8.746;2022-09-24T02:54:10;91368.69;;;16.85;47.50
46778;BME280;32536;47.128;8.746;2022-09-24T02:56:37;91362.06;;;16.86;47.44
46778;BME280;32536;47.128;8.746;2022-09-24T02:59:04;91367.47;;;16.86;47.66
46778;BME280;32536;47.128;8.746;2022-09-24T03:01:31;91368.38;;;16.83;47.90
46778;BME280;32536;47.128;8.746;2022-09-24T03:03:58;91361.91;;;16.80;47.36
46778;BME280;32536;47.128;8.746;2022-09-24T03:06:25;91360.41;;;16.79;47.78
46778;BME280;32536;47.128;8.746;2022-09-24T03:08:53;91360.41;;;16.79;47.77
46778;BME280;32536;47.128;8.746;2022-09-24T03:11:20;91355.72;;;16.79;48.15
46778;BME280;32536;47.128;8.746;2022-09-24T03:13:48;91361.13;;;16.79;47.81
46778;BME280;32536;47.128;8.746;2022-09-24T03:16:16;91358.44;;;16.79;47.78
46778;BME280;32536;47.128;8.746;2022-09-24T03:18:45;91369.56;;;16.81;47.72
46778;BME280;32536;47.128;8.746;2022-09-24T03:21:14;91365.97;;;16.85;47.78
46778;BME280;32536;47.128;8.746;2022-09-24T03:23:43;91367.03;;;16.87;47.85
46778;BME280;32536;47.128;8.746;2022-09-24T03:26:11;91363.13;;;16.88;47.72
46778;BME280;32536;47.128;8.746;2022-09-24T03:28:38;91352.31;;;16.88;47.44
46778;BME280;32536;47.128;8.746;2022-09-24T03:31:06;91354.69;;;16.86;47.69
46778;BME280;32536;47.128;8.746;2022-09-24T03:33:42;91350.03;;;16.87;48.51
46778;BME280;32536;47.128;8.746;2022-09-24T03:36:22;91346.13;;;16.88;47.92
46778;BME280;32536;47.128;8.746;2022-09-24T03:38:55;91346.00;;;16.82;48.53
46778;BME280;32536;47.128;8.746;2022-09-24T03:41:23;91341.47;;;16.79;48.24
46778;BME280;32536;47.128;8.746;2022-09-24T03:43:52;91345.69;;;16.80;48.25
46778;BME280;32536;47.128;8.746;2022-09-24T03:46:19;91347.63;;;16.79;48.26
46778;BME280;32536;47.128;8.746;2022-09-24T03:48:46;91333.94;;;16.83;48.04
46778;BME280;32536;47.128;8.746;2022-09-24T03:51:15;91337.25;;;16.87;47.77
46778;BME280;32536;47.128;8.746;2022-09-24T03:53:44;91341.75;;;16.90;47.62
46778;BME280;32536;47.128;8.746;2022-09-24T03:56:11;91342.09;;;16.92;47.67
46778;BME280;32536;47.128;8.746;2022-09-24T03:58:39;91351.38;;;16.91;47.77
46778;BME280;32536;47.128;8.746;2022-09-24T04:01:09;91349.00;;;16.93;48.14
46778;BME280;32536;47.128;8.746;2022-09-24T04:03:38;91354.44;;;16.93;47.87
46778;BME280;32536;47.128;8.746;2022-09-24T04:06:06;91349.88;;;16.90;48.13
46778;BME280;32536;47.128;8.746;2022-09-24T04:08:33;91346.59;;;16.86;48.04
46778;BME280;32536;47.128;8.746;2022-09-24T04:10:59;91351.53;;;16.88;48.23
46778;BME280;32536;47.128;8.746;2022-09-24T04:13:26;91349.13;;;16.90;48.42
46778;BME280;32536;47.128;8.746;2022-09-24T04:15:53;91352.03;;;16.95;48.31
46778;BME280;32536;47.128;8.746;2022-09-24T04:18:20;91339.81;;;17.00;48.12
46778;BME280;32536;47.128;8.746;2022-09-24T04:20:47;91339.69;;;17.04;47.96
46778;BME280;32536;47.128;8.746;2022-09-24T04:23:14;91348.41;;;17.08;47.95
46778;BME280;32536;47.128;8.746;2022-09-24T04:25:41;91352.63;;;17.09;47.93
46778;BME280;32536;47.128;8.746;2022-09-24T04:28:08;91349.47;;;17.10;47.97
46778;BME280;32536;47.128;8.746;2022-09-24T04:30:37;91358.94;;;17.06;47.70
46778;BME280;32536;47.128;8.746;2022-09-24T04:33:04;91369.91;;;17.02;47.64
46778;BME280;32536;47.128;8.746;2022-09-24T04:35:33;91376.66;;;16.98;47.57
46778;BME280;32536;47.128;8.746;2022-09-24T04:38:02;91366.00;;;16.94;47.46
46778;BME280;32536;47.128;8.746;2022-09-24T04:40:30;91372.59;;;16.93;47.50
46778;BME280;32536;47.128;8.746;2022-09-24T04:42:57;91374.53;;;16.83;47.65
46778;BME280;32536;47.128;8.746;2022-09-24T04:45:24;91366.69;;;16.76;47.76
46778;BME280;32536;47.128;8.746;2022-09-24T04:47:51;91379.31;;;16.70;47.84
46778;BME280;32536;47.128;8.746;2022-09-24T04:50:27;91383.25;;;16.69;48.17
46778;BME280;32536;47.128;8.746;2022-09-24T04:52:58;91387.75;;;16.72;47.68
46778;BME280;32536;47.128;8.746;2022-09-24T04:55:25;91382.66;;;16.74;47.44
46778;BME280;32536;47.128;8.746;2022-09-24T04:57:56;91385.63;;;16.76;47.77
46778;BME280;32536;47.128;8.746;2022-09-24T05:00:23;91392.88;;;16.79;47.44
46778;BME280;32536;47.128;8.746;2022-09-24T05:02:57;91385.94;;;16.78;49.44
46778;BME280;32536;47.128;8.746;2022-09-24T05:05:28;91384.91;;;16.75;47.74
46778;BME280;32536;47.128;8.746;2022-09-24T05:07:54;91389.56;;;16.75;47.23
46778;BME280;32536;47.128;8.746;2022-09-24T05:10:24;91378.75;;;16.75;47.79
46778;BME280;32536;47.128;8.746;2022-09-24T05:12:52;91384.16;;;16.75;47.48
46778;BME280;32536;47.128;8.746;2022-09-24T05:15:20;91394.50;;;16.76;47.73
46778;BME280;32536;47.128;8.746;2022-09-24T05:18:02;91393.75;;;16.76;48.90
46778;BME280;32536;47.128;8.746;2022-09-24T05:20:31;91394.38;;;16.80;47.81
46778;BME280;32536;47.128;8.746;2022-09-24T05:22:58;91385.50;;;16.79;48.09
46778;BME280;32536;47.128;8.746;2022-09-24T05:25:25;91384.44;;;16.77;47.95
46778;BME280;32536;47.128;8.746;2022-09-24T05:27:53;91391.03;;;16.76;48.16
46778;BME280;32536;47.128;8.746;2022-09-24T05:30:23;91380.22;;;16.76;48.27
46778;BME280;32536;47.128;8.746;2022-09-24T05:32:51;91383.38;;;16.74;48.48
46778;BME280;32536;47.128;8.746;2022-09-24T05:35:22;91389.41;;;16.69;48.61
46778;BME280;32536;47.128;8.746;2022-09-24T05:37:49;91392.69;;;16.64;48.56
46778;BME280;32536;47.128;8.746;2022-09-24T05:40:18;91394.50;;;16.58;48.84
46778;BME280;32536;47.128;8.746;2022-09-24T05:43:03;91389.50;;;16.47;48.60
46778;BME280;32536;47.128;8.746;2022-09-24T05:45:31;91399.84;;;16.39;48.67
46778;BME280;32536;47.128;8.746;2022-09-24T05:47:57;91390.53;;;16.31;49.00
46778;BME280;32536;47.128;8.746;2022-09-24T05:50:24;91393.66;;;16.20;49.16
46778;BME280;32536;47.128;8.746;2022-09-24T05:52:51;91391.22;;;16.13;49.30
46778;BME280;32536;47.128;8.746;2022-09-24T05:55:18;91397.22;;;16.08;49.12
46778;BME280;32536;47.128;8.746;2022-09-24T05:57:45;91398.84;;;16.05;49.65
46778;BME280;32536;47.128;8.746;2022-09-24T06:00:11;91400.66;;;16.08;49.78
46778;BME280;32536;47.128;8.746;2022-09-24T06:02:38;91391.66;;;16.11;49.73
46778;BME280;32536;47.128;8.746;2022-09-24T06:05:05;91393.59;;;16.11;49.65
46778;BME280;32536;47.128;8.746;2022-09-24T06:07:32;91394.78;;;16.10;49.78
46778;BME280;32536;47.128;8.746;2022-09-24T06:09:59;91397.06;;;16.11;49.73
46778;BME280;32536;47.128;8.746;2022-09-24T06:12:26;91403.09;;;16.15;49.98
46778;BME280;32536;47.128;8.746;2022-09-24T06:14:53;91399.19;;;16.16;49.91
46778;BME280;32536;47.128;8.746;2022-09-24T06:17:20;91385.53;;;16.20;49.80
46778;BME280;32536;47.128;8.746;2022-09-24T06:19:48;91390.34;;;16.25;49.47
46778;BME280;32536;47.128;8.746;2022-09-24T06:22:15;91390.66;;;16.27;49.67
46778;BME280;32536;47.128;8.746;2022-09-24T06:24:41;91386.44;;;16.26;49.57
46778;BME280;32536;47.128;8.746;2022-09-24T06:27:08;91396.50;;;16.26;50.00
46778;BME280;32536;47.128;8.746;2022-09-24T06:29:35;91396.50;;;16.26;49.96
46778;BME280;32536;47.128;8.746;2022-09-24T06:32:02;91392.19;;;16.28;50.16
46778;BME280;32536;47.128;8.746;2022-09-24T06:34:29;91383.94;;;16.32;49.85
46778;BME280;32536;47.128;8.746;2022-09-24T06:36:56;91382.28;;;16.35;49.90
46778;BME280;32536;47.128;8.746;2022-09-24T06:39:23;91386.78;;;16.38;50.00
46778;BME280;32536;47.128;8.746;2022-09-24T06:41:52;91384.25;;;16.43;49.83
46778;BME280;32536;47.128;8.746;2022-09-24T06:44:18;91389.50;;;16.47;49.82
46778;BME280;32536;47.128;8.746;2022-09-24T06:46:45;91392.06;;;16.51;49.75
46778;BME280;32536;47.128;8.746;2022-09-24T06:49:12;91394.47;;;16.48;50.31
46778;BME280;32536;47.128;8.746;2022-09-24T06:51:39;91391.75;;;16.48;50.01
46778;BME280;32536;47.128;8.746;2022-09-24T06:54:06;91388.59;;;16.50;49.92
46778;BME280;32536;47.128;8.746;2022-09-24T06:56:33;91389.66;;;16.53;49.76
46778;BME280;32536;47.128;8.746;2022-09-24T06:58:59;91390.75;;;16.55;49.90
46778;BME280;32536;47.128;8.746;2022-09-24T07:01:26;91391.94;;;16.54;49.76
46778;BME280;32536;47.128;8.746;2022-09-24T07:03:53;91393.13;;;16.53;49.64
46778;BME280;32536;47.128;8.746;2022-09-24T07:06:20;91383.06;;;16.54;49.45
46778;BME280;32536;47.128;8.746;2022-09-24T07:08:50;91390.09;;;16.51;50.78
46778;BME280;32536;47.128;8.746;2022-09-24T07:11:17;91393.28;;;16.49;49.88
46778;BME280;32536;47.128;8.746;2022-09-24T07:13:44;91392.22;;;16.47;49.76
46778;BME280;32536;47.128;8.746;2022-09-24T07:16:10;91392.22;;;16.47;49.49
46778;BME280;32536;47.128;8.746;2022-09-24T07:18:37;91395.50;;;16.42;50.37
46778;BME280;32536;47.128;8.746;2022-09-24T07:21:04;91392.78;;;16.32;50.74
46778;BME280;32536;47.128;8.746;2022-09-24T07:23:31;91398.47;;;16.25;50.70
46778;BME280;32536;47.128;8.746;2022-09-24T07:25:57;91391.53;;;16.24;50.16
46778;BME280;32536;47.128;8.746;2022-09-24T07:28:24;91389.59;;;16.25;50.15
46778;BME280;32536;47.128;8.746;2022-09-24T07:30:55;91393.38;;;16.27;50.93
46778;BME280;32536;47.128;8.746;2022-09-24T07:33:26;91392.19;;;16.28;50.21
46778;BME280;32536;47.128;8.746;2022-09-24T07:35:53;91394.88;;;16.28;50.43
46778;BME280;32536;47.128;8.746;2022-09-24T07:38:19;91398.31;;;16.29;50.63
46778;BME280;32536;47.128;8.746;2022-09-24T07:40:47;91393.38;;;16.27;50.71
46778;BME280;32536;47.128;8.746;2022-09-24T07:43:14;91401.47;;;16.27;50.36
46778;BME280;32536;47.128;8.746;2022-09-24T07:45:41;91396.34;;;16.29;50.51
46778;BME280;32536;47.128;8.746;2022-09-24T07:48:09;91401.75;;;16.29;50.67
46778;BME280;32536;47.128;8.746;2022-09-24T07:50:40;91394.88;;;16.28;51.31
46778;BME280;32536;47.128;8.746;2022-09-24T07:53:10;91397.13;;;16.30;50.90
46778;BME280;32536;47.128;8.746;2022-09-24T07:55:38;91397.72;;;16.34;50.45
46778;BME280;32536;47.128;8.746;2022-09-24T07:58:07;91399.25;;;16.35;50.48
46778;BME280;32536;47.128;8.746;2022-09-24T08:00:38;91399.84;;;16.39;50.26
46778;BME280;32536;47.128;8.746;2022-09-24T08:03:05;91402.84;;;16.41;50.44
46778;BME280;32536;47.128;8.746;2022-09-24T08:05:32;91408.13;;;16.45;50.31
46778;BME280;32536;47.128;8.746;2022-09-24T08:07:59;91404.53;;;16.48;50.43
46778;BME280;32536;47.128;8.746;2022-09-24T08:10:26;91409.81;;;16.52;50.40
46778;BME280;32536;47.128;8.746;2022-09-24T08:12:53;91414.75;;;16.53;50.54
46778;BME280;32536;47.128;8.746;2022-09-24T08:15:23;91410.09;;;16.54;50.25
46778;BME280;32536;47.128;8.746;2022-09-24T08:18:12;91401.97;;;16.54;51.36
46778;BME280;32536;47.128;8.746;2022-09-24T08:20:38;91405.31;;;16.58;50.71
46778;BME280;32536;47.128;8.746;2022-09-24T08:23:07;91410.56;;;16.61;50.80
46778;BME280;32536;47.128;8.746;2022-09-24T08:25:37;91407.59;;;16.69;50.69
46778;BME280;32536;47.128;8.746;2022-09-24T08:28:04;91411.94;;;16.75;50.65
46778;BME280;32536;47.128;8.746;2022-09-24T08:30:33;91408.63;;;16.80;50.35
46778;BME280;32536;47.128;8.746;2022-09-24T08:33:00;91404.13;;;16.87;50.44
46778;BME280;32536;47.128;8.746;2022-09-24T08:35:29;91411.69;;;16.92;50.38
46778;BME280;32536;47.128;8.746;2022-09-24T08:37:56;91411.56;;;16.95;50.26
46778;BME280;32536;47.128;8.746;2022-09-24T08:40:29;91400.72;;;16.95;50.44
46778;BME280;32536;47.128;8.746;2022-09-24T08:43:36;91407.16;;;16.89;51.01
46778;BME280;32536;47.128;8.746;2022-09-24T08:46:29;91405.78;;;16.84;51.06
46778;BME280;32536;47.128;8.746;2022-09-24T08:49:21;91404.00;;;16.81;50.77
46778;BME280;32536;47.128;8.746;2022-09-24T08:52:14;91407.28;;;16.76;51.32
46778;BME280;32536;47.128;8.746;2022-09-24T08:55:05;91414.19;;;16.77;51.16
46778;BME280;32536;47.128;8.746;2022-09-24T08:57:44;91405.50;;;16.82;50.65
46778;BME280;32536;47.128;8.746;2022-09-24T09:00:23;91396.78;;;16.87;50.16
46778;BME280;32536;47.128;8.746;2022-09-24T09:03:27;91396.31;;;16.89;50.87
46778;BME280;32536;47.128;8.746;2022-09-24T09:09:16;91413.00;;;16.87;50.83
46778;BME280;32536;47.128;8.746;2022-09-24T09:11:59;91406.56;;;16.85;50.79
46778;BME280;32536;47.128;8.746;2022-09-24T09:14:41;91406.84;;;16.87;50.40
46778;BME280;32536;47.128;8.746;2022-09-24T09:20:43;91408.63;;;16.71;51.14
46778;BME280;32536;47.128;8.746;2022-09-24T09:23:21;91415.38;;;16.67;51.16
46778;BME280;32536;47.128;8.746;2022-09-24T09:26:10;91413.00;;;16.69;51.10
46778;BME280;32536;47.128;8.746;2022-09-24T09:28:37;91413.59;;;16.73;50.65
46778;BME280;32536;47.128;8.746;2022-09-24T09:43:07;91412.53;;;16.79;51.16
46778;BME280;32536;47.128;8.746;2022-09-24T09:46:00;91411.97;;;16.85;51.61
46778;BME280;32536;47.128;8.746;2022-09-24T09:48:43;91411.81;;;16.88;50.84
46778;BME280;32536;47.128;8.746;2022-09-24T09:51:18;91407.78;;;16.93;50.98
46778;BME280;32536;47.128;8.746;2022-09-24T09:53:59;91413.94;;;16.93;51.11
46778;BME280;32536;47.128;8.746;2022-09-24T09:56:29;91408.53;;;16.93;50.80
46778;BME280;32536;47.128;8.746;2022-09-24T10:01:34;91413.75;;;16.88;50.75
46778;BME280;32536;47.128;8.746;2022-09-24T10:04:20;91419.03;;;16.91;50.84
46778;BME280;32536;47.128;8.746;2022-09-24T10:07:15;91416.06;;;16.99;51.34
46778;BME280;32536;47.128;8.746;2022-09-24T10:09:44;91405.38;;;17.04;50.69
46778;BME280;32536;47.128;8.746;2022-09-24T10:12:19;91411.84;;;17.07;51.20
46778;BME280;32536;47.128;8.746;2022-09-24T10:15:02;91408.22;;;17.10;51.36
46778;BME280;32536;47.128;8.746;2022-09-24T10:17:35;91406.16;;;17.14;51.63
46778;BME280;32536;47.128;8.746;2022-09-24T10:20:18;91401.78;;;17.17;51.88
46778;BME280;32536;47.128;8.746;2022-09-24T10:22:50;91405.38;;;17.23;51.06
46778;BME280;32536;47.128;8.746;2022-09-24T10:25:25;91408.69;;;17.27;50.82
46778;BME280;32536;47.128;8.746;2022-09-24T10:27:54;91399.38;;;17.37;51.00
46778;BME280;32536;47.128;8.746;2022-09-24T10:30:57;91407.78;;;17.39;51.21
46778;BME280;32536;47.128;8.746;2022-09-24T10:33:48;91410.50;;;17.39;50.61
46778;BME280;32536;47.128;8.746;2022-09-24T10:36:25;91407.19;;;17.35;50.74
46778;BME280;32536;47.128;8.746;2022-09-24T10:39:21;91404.03;;;17.27;52.85
46778;BME280;32536;47.128;8.746;2022-09-24T10:41:53;91409.44;;;17.18;50.95
46778;BME280;32536;47.128;8.746;2022-09-24T10:44:23;91404.78;;;17.09;50.92
46778;BME280;32536;47.128;8.746;2022-09-24T10:50:11;91410.16;;;16.91;52.35
46778;BME280;32536;47.128;8.746;2022-09-24T10:52:56;91410.47;;;16.84;51.76
46778;BME280;32536;47.128;8.746;2022-09-24T11:01:44;91405.63;;;16.88;51.22
46778;BME280;32536;47.128;8.746;2022-09-24T11:04:50;91404.44;;;16.89;51.94
46778;BME280;32536;47.128;8.746;2022-09-24T11:07:43;91404.13;;;16.87;53.26
46778;BME280;32536;47.128;8.746;2022-09-24T11:19:02;91406.09;;;16.86;51.24
46778;BME280;32536;47.128;8.746;2022-09-24T11:22:07;91394.06;;;16.87;50.99
46778;BME280;32536;47.128;8.746;2022-09-24T11:27:50;91384.91;;;16.75;50.92
46778;BME280;32536;47.128;8.746;2022-09-24T11:37:15;91376.59;;;16.51;52.28
46778;BME280;32536;47.128;8.746;2022-09-24T11:39:55;91377.22;;;16.55;51.62
46778;BME280;32536;47.128;8.746;2022-09-24T11:48:36;91368.06;;;16.62;52.35
46778;BME280;32536;47.128;8.746;2022-09-24T11:52:05;91369.72;;;16.69;52.37
46778;BME280;32536;47.128;8.746;2022-09-24T11:54:27;91363.56;;;16.77;51.89
46778;BME280;32536;47.128;8.746;2022-09-24T11:59:57;91353.78;;;16.71;51.81
46778;BME280;32536;47.128;8.746;2022-09-24T12:02:39;91354.69;;;16.68;52.41
46778;BME280;32536;47.128;8.746;2022-09-24T12:05:34;91358.44;;;16.70;52.96
46778;BME280;32536;47.128;8.746;2022-09-24T12:08:14;91355.59;;;16.74;51.81
46778;BME280;32536;47.128;8.746;2022-09-24T12:10:50;91349.44;;;16.83;52.16
46778;BME280;32536;47.128;8.746;2022-09-24T12:13:35;91346.44;;;16.90;52.21
46778;BME280;32536;47.128;8.746;2022-09-24T12:16:18;91349.91;;;17.00;51.93
46778;BME280;32536;47.128;8.746;2022-09-24T12:21:43;91349.31;;;17.14;51.43
46778;BME280;32536;47.128;8.746;2022-09-24T12:27:02;91348.84;;;17.25;51.85
46778;BME280;32536;47.128;8.746;2022-09-24T12:29:51;91348.06;;;17.24;52.51
46778;BME280;32536;47.128;8.746;2022-09-24T12:33:18;91351.09;;;17.26;51.74
46778;BME280;32536;47.128;8.746;2022-09-24T12:46:51;91331.69;;;17.37;53.77
46778;BME280;32536;47.128;8.746;2022-09-24T12:51:59;91337.81;;;17.38;51.62
46778;BME280;32536;47.128;8.746;2022-09-24T12:54:42;91330.00;;;17.40;51.48
46778;BME280;32536;47.128;8.746;2022-09-24T12:57:14;91336.00;;;17.44;51.11
46778;BME280;32536;47.128;8.746;2022-09-24T13:05:58;91330.44;;;17.48;51.25
46778;BME280;32536;47.128;8.746;2022-09-24T13:08:37;91325.19;;;17.44;50.97
46778;BME280;32536;47.128;8.746;2022-09-24T13:11:25;91326.84;;;17.41;52.48
46778;BME280;32536;47.128;8.746;2022-09-24T13:16:42;91328.50;;;17.39;50.99
46778;BME280;32536;47.128;8.746;2022-09-24T13:19:39;91318.72;;;17.41;51.59
46778;BME280;32536;47.128;8.746;2022-09-24T13:25:24;91327.00;;;17.47;52.66
46778;BME280;32536;47.128;8.746;2022-09-24T13:28:02;91324.44;;;17.43;51.89
46778;BME280;32536;47.128;8.746;2022-09-24T13:30:51;91319.91;;;17.40;51.62
46778;BME280;32536;47.128;8.746;2022-09-24T13:33:40;91330.16;;;17.36;52.70
46778;BME280;32536;47.128;8.746;2022-09-24T13:45:02;91316.78;;;17.33;52.13
46778;BME280;32536;47.128;8.746;2022-09-24T13:50:35;91308.03;;;17.38;51.92
46778;BME280;32536;47.128;8.746;2022-09-24T13:55:58;91308.81;;;17.38;51.65
46778;BME280;32536;47.128;8.746;2022-09-24T13:58:35;91314.06;;;17.42;51.61
46778;BME280;32536;47.128;8.746;2022-09-24T14:01:09;91314.97;;;17.48;51.40
46778;BME280;32536;47.128;8.746;2022-09-24T14:03:54;91316.47;;;17.49;51.89
46778;BME280;32536;47.128;8.746;2022-09-24T14:07:05;91313.13;;;17.54;51.51
46778;BME280;32536;47.128;8.746;2022-09-24T14:09:32;91316.25;;;17.62;51.30
46778;BME280;32536;47.128;8.746;2022-09-24T14:12:14;91324.78;;;17.70;51.24
46778;BME280;32536;47.128;8.746;2022-09-24T14:14:53;91324.94;;;17.75;51.28
46778;BME280;32536;47.128;8.746;2022-09-24T14:17:23;91314.25;;;17.81;50.93
46778;BME280;32536;47.128;8.746;2022-09-24T14:19:55;91310.50;;;17.79;51.25
46778;BME280;32536;47.128;8.746;2022-09-24T14:22:28;91303.56;;;17.77;51.18
46778;BME280;32536;47.128;8.746;2022-09-24T14:25:05;91304.59;;;17.80;51.08
46778;BME280;32536;47.128;8.746;2022-09-24T14:27:42;91307.63;;;17.82;51.26
46778;BME280;32536;47.128;8.746;2022-09-24T14:30:24;91307.16;;;17.84;51.20
46778;BME280;32536;47.128;8.746;2022-09-24T14:32:58;91303.25;;;17.85;50.77
46778;BME280;32536;47.128;8.746;2022-09-24T14:40:26;91302.81;;;17.77;50.77
46778;BME280;32536;47.128;8.746;2022-09-24T14:42:56;91303.59;;;17.68;50.85
46778;BME280;32536;47.128;8.746;2022-09-24T14:48:03;91304.25;;;17.54;51.19
46778;BME280;32536;47.128;8.746;2022-09-24T14:50:35;91297.47;;;17.58;50.82
46778;BME280;32536;47.128;8.746;2022-09-24T14:53:26;91286.94;;;17.60;51.19
46778;BME280;32536;47.128;8.746;2022-09-24T14:56:25;91289.47;;;17.64;51.08
46778;BME280;32536;47.128;8.746;2022-09-24T14:58:52;91283.44;;;17.69;50.85
46778;BME280;32536;47.128;8.746;2022-09-24T15:01:20;91284.16;;;17.70;51.17
46778;BME280;32536;47.128;8.746;2022-09-24T15:03:57;91292.28;;;17.70;51.26
46778;BME280;32536;47.128;8.746;2022-09-24T15:06:28;91290.03;;;17.68;51.10
46778;BME280;32536;47.128;8.746;2022-09-24T15:09:03;91286.31;;;17.66;51.26
46778;BME280;32536;47.128;8.746;2022-09-24T15:11:35;91287.97;;;17.63;51.19
46778;BME280;32536;47.128;8.746;2022-09-24T15:16:44;91291.94;;;17.53;51.25
46778;BME280;32536;47.128;8.746;2022-09-24T15:19:17;91289.81;;;17.48;51.66
46778;BME280;32536;47.128;8.746;2022-09-24T15:21:56;91285.03;;;17.42;51.75
46778;BME280;32536;47.128;8.746;2022-09-24T15:24:24;91282.47;;;17.39;51.81
46778;BME280;32536;47.128;8.746;2022-09-24T15:27:04;91289.41;;;17.40;52.15
46778;BME280;32536;47.128;8.746;2022-09-24T15:29:32;91288.19;;;17.41;51.59
46778;BME280;32536;47.128;8.746;2022-09-24T15:31:58;91280.22;;;17.37;51.50
46778;BME280;32536;47.128;8.746;2022-09-24T15:34:25;91291.06;;;17.37;51.66
46778;BME280;32536;47.128;8.746;2022-09-24T15:36:56;91291.06;;;17.37;51.56
46778;BME280;32536;47.128;8.746;2022-09-24T15:39:25;91290.13;;;17.40;51.71
46778;BME280;32536;47.128;8.746;2022-09-24T15:41:52;91277.94;;;17.45;51.56
46778;BME280;32536;47.128;8.746;2022-09-24T15:44:23;91277.78;;;17.49;51.98